Time;durP1;ratioP1;P1;durP2;ratioP2;P2;SDS_P1;SDS_P2;PMS_P1;PMS_P2;Temp;Humidity;BMP_temperature;BMP_pressure;BME280_temperature;BME280_humidity;BME280_pressure;Samples;Min_cycle;Max_cycle;Signal;HPM_P1;HPM_P2
2022/03/15 00:01:23;;;;;;;3.60;1.90;;;;;;;;;;5027034;28;20211;-65
2022/03/15 00:03:50;;;;;;;5.63;2.07;;;;;;;;;;5043925;28;20211;-64
2022/03/15 00:06:18;;;;;;;2.40;1.90;;;;;;;;;;5040107;28;20284;-65
2022/03/15 00:08:46;;;;;;;7.23;2.40;;;;;;;;;;5024885;28;20234;-65
2022/03/15 00:11:13;;;;;;;4.23;1.70;;;;;;;;;;5026136;28;20199;-66
2022/03/15 00:13:41;;;;;;;3.63;2.13;;;;;;;;;;5042759;28;20350;-64
2022/03/15 00:16:10;;;;;;;3.73;1.97;;;;;;;;;;5042703;28;20207;-66
2022/03/15 00:18:38;;;;;;;3.33;1.90;;;;;;;;;;5041219;28;20235;-65
2022/03/15 00:21:10;;;;;;;3.63;1.97;;;;;;;;;;5030405;28;20382;-66
2022/03/15 00:23:38;;;;;;;3.93;1.80;;;;;;;;;;5017735;28;20230;-65
2022/03/15 00:26:07;;;;;;;4.57;2.13;;;;;;;;;;5020947;28;20246;-66
2022/03/15 00:28:35;;;;;;;2.87;2.07;;;;;;;;;;5032505;28;20233;-65
2022/03/15 00:31:03;;;;;;;4.53;2.00;;;;;;;;;;5017756;28;20301;-64
2022/03/15 00:33:31;;;;;;;5.10;1.90;;;;;;;;;;5016752;28;20207;-63
2022/03/15 00:35:59;;;;;;;2.63;1.63;;;;;;;;;;5014372;28;20268;-65
2022/03/15 00:38:27;;;;;;;3.03;1.77;;;;;;;;;;5023492;28;20235;-65
2022/03/15 00:40:55;;;;;;;2.40;1.90;;;;;;;;;;5015790;28;20211;-65
2022/03/15 00:43:22;;;;;;;3.37;2.00;;;;;;;;;;5041946;28;20226;-66
2022/03/15 00:45:51;;;;;;;3.10;1.97;;;;;;;;;;5030441;28;20207;-64
2022/03/15 00:48:19;;;;;;;4.10;1.90;;;;;;;;;;5015519;28;20227;-66
2022/03/15 00:50:47;;;;;;;3.27;2.23;;;;;;;;;;5015230;28;20231;-66
2022/03/15 00:53:14;;;;;;;4.60;1.90;;;;;;;;;;5014794;28;20199;-66
2022/03/15 00:55:41;;;;;;;4.10;2.00;;;;;;;;;;5016327;28;20273;-65
2022/03/15 00:58:09;;;;;;;5.03;2.20;;;;;;;;;;5017308;28;20718;-66
2022/03/15 01:00:37;;;;;;;4.67;2.17;;;;;;;;;;5033926;28;20220;-66
2022/03/15 01:03:06;;;;;;;4.03;2.00;;;;;;;;;;5021813;28;20235;-65
2022/03/15 01:05:34;;;;;;;4.00;2.00;;;;;;;;;;5012849;28;20204;-66
2022/03/15 01:08:01;;;;;;;4.33;2.00;;;;;;;;;;5015519;28;20227;-65
2022/03/15 01:10:28;;;;;;;3.80;2.30;;;;;;;;;;5024092;28;20203;-65
2022/03/15 01:12:56;;;;;;;3.40;2.20;;;;;;;;;;5043393;28;20732;-65
2022/03/15 01:15:25;;;;;;;3.33;2.07;;;;;;;;;;5044461;28;20715;-66
2022/03/15 01:17:52;;;;;;;4.33;1.90;;;;;;;;;;5014647;28;20727;-65
2022/03/15 01:20:20;;;;;;;4.47;2.03;;;;;;;;;;5018570;28;20207;-66
2022/03/15 01:22:47;;;;;;;4.03;2.30;;;;;;;;;;5013859;28;20206;-65
2022/03/15 01:25:15;;;;;;;3.33;2.03;;;;;;;;;;5014099;28;20250;-66
2022/03/15 01:27:42;;;;;;;4.33;2.57;;;;;;;;;;5022610;28;20242;-65
2022/03/15 01:30:09;;;;;;;2.90;2.07;;;;;;;;;;5017466;28;20290;-65
2022/03/15 01:32:37;;;;;;;3.40;2.23;;;;;;;;;;5029180;28;20255;-64
2022/03/15 01:35:05;;;;;;;2.53;2.20;;;;;;;;;;5014777;28;20211;-65
2022/03/15 01:37:33;;;;;;;3.27;2.30;;;;;;;;;;5024361;28;20231;-64
2022/03/15 01:40:01;;;;;;;6.17;2.80;;;;;;;;;;5009976;28;20209;-66
2022/03/15 01:42:28;;;;;;;4.23;2.43;;;;;;;;;;5034453;28;20779;-65
2022/03/15 01:44:55;;;;;;;4.23;2.33;;;;;;;;;;5009644;28;20215;-65
2022/03/15 01:47:23;;;;;;;2.67;2.20;;;;;;;;;;5015021;28;20245;-66
2022/03/15 01:49:50;;;;;;;8.83;3.23;;;;;;;;;;5036017;28;20820;-64
2022/03/15 01:52:18;;;;;;;3.13;2.70;;;;;;;;;;5017784;28;20203;-64
2022/03/15 01:54:46;;;;;;;4.47;2.63;;;;;;;;;;5015073;28;20207;-65
2022/03/15 01:57:13;;;;;;;4.37;2.70;;;;;;;;;;5012534;28;20711;-66
2022/03/15 01:59:41;;;;;;;4.17;2.80;;;;;;;;;;5038650;28;21994;-65
2022/03/15 02:02:08;;;;;;;4.70;2.50;;;;;;;;;;5025858;28;20213;-64
2022/03/15 02:04:37;;;;;;;2.50;2.30;;;;;;;;;;5038567;28;20230;-65
2022/03/15 02:07:09;;;;;;;4.70;2.60;;;;;;;;;;5038018;28;20242;-66
2022/03/15 02:09:37;;;;;;;2.37;1.90;;;;;;;;;;5021923;28;20401;-65
2022/03/15 02:12:04;;;;;;;4.00;2.40;;;;;;;;;;5039111;28;20198;-65
2022/03/15 02:14:32;;;;;;;3.93;2.00;;;;;;;;;;5042153;28;20744;-66
2022/03/15 02:16:59;;;;;;;2.87;2.37;;;;;;;;;;5044430;28;20202;-65
2022/03/15 02:19:27;;;;;;;3.57;2.43;;;;;;;;;;5018879;28;20268;-64
2022/03/15 02:21:59;;;;;;;3.50;2.07;;;;;;;;;;5021142;28;20211;-64
2022/03/15 02:24:27;;;;;;;2.00;1.90;;;;;;;;;;5024718;28;20229;-65
2022/03/15 02:26:54;;;;;;;2.70;2.10;;;;;;;;;;5013084;28;20223;-63
2022/03/15 02:29:22;;;;;;;4.83;2.30;;;;;;;;;;5022648;28;20222;-65
2022/03/15 02:31:50;;;;;;;5.10;2.87;;;;;;;;;;5027525;28;20692;-63
2022/03/15 02:34:20;;;;;;;2.50;2.30;;;;;;;;;;5011143;28;20819;-65
2022/03/15 02:36:47;;;;;;;2.50;2.30;;;;;;;;;;5034330;28;20215;-65
2022/03/15 02:39:15;;;;;;;3.87;2.53;;;;;;;;;;5015555;28;20231;-65
2022/03/15 02:41:43;;;;;;;4.43;2.57;;;;;;;;;;5032508;28;20208;-65
2022/03/15 02:44:11;;;;;;;2.43;2.17;;;;;;;;;;5014827;28;20199;-63
2022/03/15 02:46:39;;;;;;;4.27;2.40;;;;;;;;;;5024523;28;20233;-65
2022/03/15 02:49:09;;;;;;;2.43;2.23;;;;;;;;;;5012075;28;20242;-64
2022/03/15 02:51:36;;;;;;;3.37;2.33;;;;;;;;;;5027828;28;20287;-65
2022/03/15 02:54:11;;;;;;;5.43;2.40;;;;;;;;;;5012857;28;20208;-64
2022/03/15 02:56:46;;;;;;;3.73;1.90;;;;;;;;;;5016655;28;20209;-64
2022/03/15 02:59:17;;;;;;;6.23;2.50;;;;;;;;;;5030442;28;20234;-64
2022/03/15 03:01:45;;;;;;;3.80;2.20;;;;;;;;;;5012467;28;20202;-65
2022/03/15 03:04:19;;;;;;;5.00;2.43;;;;;;;;;;5019445;28;20202;-66
2022/03/15 03:06:47;;;;;;;4.33;2.37;;;;;;;;;;5013877;28;20273;-64
2022/03/15 03:09:16;;;;;;;3.27;2.30;;;;;;;;;;5023872;28;20241;-65
2022/03/15 03:11:44;;;;;;;3.33;2.33;;;;;;;;;;5046096;28;20198;-65
2022/03/15 03:14:13;;;;;;;2.50;2.23;;;;;;;;;;5024931;28;20203;-65
2022/03/15 03:16:40;;;;;;;2.87;2.57;;;;;;;;;;5043907;28;20206;-65
2022/03/15 03:19:08;;;;;;;4.47;2.53;;;;;;;;;;5033715;28;20234;-66
2022/03/15 03:21:37;;;;;;;3.10;2.43;;;;;;;;;;5024071;28;20261;-64
2022/03/15 03:24:08;;;;;;;5.30;3.83;;;;;;;;;;5023252;28;20218;-65
2022/03/15 03:26:37;;;;;;;7.03;4.00;;;;;;;;;;5028286;28;20736;-66
2022/03/15 03:29:13;;;;;;;8.80;4.67;;;;;;;;;;5027786;28;20219;-65
2022/03/15 03:31:41;;;;;;;8.70;4.07;;;;;;;;;;5017529;28;21582;-65
2022/03/15 03:34:09;;;;;;;4.40;3.40;;;;;;;;;;5017125;28;20202;-65
2022/03/15 03:36:37;;;;;;;5.70;3.90;;;;;;;;;;5027029;28;20329;-65
2022/03/15 03:39:24;;;;;;;5.27;3.80;;;;;;;;;;5029583;28;20222;-63
2022/03/15 03:41:53;;;;;;;6.10;3.33;;;;;;;;;;5041349;28;20211;-65
2022/03/15 03:44:20;;;;;;;3.80;3.40;;;;;;;;;;5042216;28;20282;-65
2022/03/15 03:46:48;;;;;;;5.63;3.60;;;;;;;;;;5013243;28;20227;-65
2022/03/15 03:49:15;;;;;;;5.93;3.70;;;;;;;;;;5035513;28;20719;-65
2022/03/15 03:51:43;;;;;;;5.67;3.60;;;;;;;;;;5023744;28;20207;-64
2022/03/15 03:54:11;;;;;;;4.57;3.50;;;;;;;;;;5023781;28;20211;-64
2022/03/15 03:56:38;;;;;;;4.93;3.47;;;;;;;;;;5016402;28;20203;-65
2022/03/15 03:59:05;;;;;;;4.40;2.87;;;;;;;;;;5026488;28;20223;-66
2022/03/15 04:01:33;;;;;;;7.20;3.40;;;;;;;;;;5044373;28;20253;-65
2022/03/15 04:04:05;;;;;;;4.07;3.03;;;;;;;;;;5024414;28;20203;-63
2022/03/15 04:06:33;;;;;;;4.07;3.10;;;;;;;;;;5018486;28;20210;-64
2022/03/15 04:09:01;;;;;;;4.60;3.00;;;;;;;;;;5023738;28;20227;-66
2022/03/15 04:11:31;;;;;;;3.67;3.20;;;;;;;;;;5027359;28;20213;-65
2022/03/15 04:13:59;;;;;;;3.93;3.00;;;;;;;;;;5043842;28;20815;-66
2022/03/15 04:16:27;;;;;;;3.40;2.60;;;;;;;;;;5030967;28;20243;-63
2022/03/15 04:18:54;;;;;;;3.83;2.87;;;;;;;;;;5021799;28;20854;-64
2022/03/15 04:21:24;;;;;;;3.33;2.70;;;;;;;;;;5019591;28;20207;-64
2022/03/15 04:23:55;;;;;;;5.07;2.37;;;;;;;;;;5012524;28;20219;-64
2022/03/15 04:26:23;;;;;;;3.63;2.67;;;;;;;;;;5040206;28;20265;-65
2022/03/15 04:28:51;;;;;;;3.43;2.60;;;;;;;;;;5017906;28;20242;-65
2022/03/15 04:31:19;;;;;;;5.40;3.00;;;;;;;;;;5034677;28;20211;-66
2022/03/15 04:33:47;;;;;;;6.87;4.90;;;;;;;;;;5018226;28;20233;-65
2022/03/15 04:36:14;;;;;;;5.27;3.23;;;;;;;;;;5031280;28;20203;-63
2022/03/15 04:38:42;;;;;;;5.80;3.20;;;;;;;;;;5020289;28;20231;-63
2022/03/15 04:41:11;;;;;;;5.50;3.00;;;;;;;;;;5006082;28;20211;-64
2022/03/15 04:43:38;;;;;;;5.67;3.30;;;;;;;;;;5020909;28;20214;-63
2022/03/15 04:46:06;;;;;;;6.03;4.27;;;;;;;;;;5014017;28;20226;-65
2022/03/15 04:48:34;;;;;;;7.77;4.40;;;;;;;;;;5014367;28;20231;-65
2022/03/15 04:51:02;;;;;;;8.60;3.87;;;;;;;;;;5026717;28;20203;-65
2022/03/15 04:53:29;;;;;;;4.63;3.57;;;;;;;;;;5012873;28;20208;-65
2022/03/15 04:55:56;;;;;;;5.73;3.87;;;;;;;;;;5025826;28;20630;-65
2022/03/15 04:58:24;;;;;;;4.83;3.37;;;;;;;;;;5025548;28;20280;-64
2022/03/15 05:00:51;;;;;;;3.63;3.10;;;;;;;;;;5017461;28;20223;-65
2022/03/15 05:03:18;;;;;;;5.90;3.30;;;;;;;;;;5007428;28;20767;-65
2022/03/15 05:05:46;;;;;;;4.03;3.07;;;;;;;;;;5008413;28;20234;-64
2022/03/15 05:08:13;;;;;;;4.17;3.37;;;;;;;;;;5012356;28;20283;-64
2022/03/15 05:13:27;;;;;;;3.53;3.07;;;;;;;;;;5014820;28;20214;-66
2022/03/15 05:15:55;;;;;;;3.63;2.90;;;;;;;;;;5021710;28;20211;-65
2022/03/15 05:18:23;;;;;;;6.50;2.83;;;;;;;;;;5012696;28;20235;-66
2022/03/15 05:20:50;;;;;;;5.43;2.87;;;;;;;;;;5013741;28;20357;-66
2022/03/15 05:23:18;;;;;;;5.43;2.70;;;;;;;;;;5008899;28;22706;-65
2022/03/15 05:25:45;;;;;;;6.07;3.30;;;;;;;;;;5020454;28;20229;-63
2022/03/15 05:28:12;;;;;;;4.23;3.00;;;;;;;;;;5006903;28;20708;-64
2022/03/15 05:30:40;;;;;;;5.00;3.20;;;;;;;;;;5022153;28;20731;-65
2022/03/15 05:33:07;;;;;;;3.30;3.00;;;;;;;;;;5006940;28;20226;-63
2022/03/15 05:35:35;;;;;;;8.07;3.57;;;;;;;;;;5036476;28;20211;-63
2022/03/15 05:38:04;;;;;;;4.77;2.77;;;;;;;;;;5025747;28;20283;-66
2022/03/15 05:40:32;;;;;;;4.07;2.83;;;;;;;;;;5026747;28;20290;-64
2022/03/15 05:42:59;;;;;;;4.10;2.93;;;;;;;;;;5017209;28;20204;-65
2022/03/15 05:45:27;;;;;;;7.47;3.13;;;;;;;;;;5018520;28;20796;-65
2022/03/15 05:47:55;;;;;;;2.97;2.67;;;;;;;;;;5017685;28;20279;-66
2022/03/15 05:50:22;;;;;;;4.03;3.20;;;;;;;;;;5024835;28;20210;-65
2022/03/15 05:52:50;;;;;;;5.17;2.63;;;;;;;;;;5033006;28;20207;-64
2022/03/15 05:55:18;;;;;;;4.57;2.73;;;;;;;;;;5035807;28;20563;-65
2022/03/15 05:57:45;;;;;;;5.07;2.67;;;;;;;;;;5023365;28;20276;-65
2022/03/15 06:00:13;;;;;;;6.13;2.60;;;;;;;;;;5026392;28;20217;-63
2022/03/15 06:02:41;;;;;;;5.67;2.80;;;;;;;;;;5046889;28;20217;-65
2022/03/15 06:05:10;;;;;;;5.47;2.67;;;;;;;;;;5044293;28;20246;-65
2022/03/15 06:07:43;;;;;;;3.00;2.60;;;;;;;;;;5033636;28;20732;-65
2022/03/15 06:10:11;;;;;;;3.57;2.67;;;;;;;;;;5025811;28;20256;-64
2022/03/15 06:12:39;;;;;;;3.37;2.80;;;;;;;;;;5040380;28;20208;-64
2022/03/15 06:15:06;;;;;;;4.93;3.10;;;;;;;;;;5037677;28;20210;-63
2022/03/15 06:17:43;;;;;;;4.07;2.63;;;;;;;;;;5021608;28;20202;-65
2022/03/15 06:20:13;;;;;;;6.63;3.00;;;;;;;;;;5021509;28;20206;-65
2022/03/15 06:22:40;;;;;;;5.50;2.93;;;;;;;;;;5042357;28;20943;-65
2022/03/15 06:25:09;;;;;;;3.57;2.70;;;;;;;;;;5039674;28;20684;-65
2022/03/15 06:27:40;;;;;;;2.70;2.50;;;;;;;;;;5038505;28;20230;-65
2022/03/15 06:30:08;;;;;;;5.97;3.30;;;;;;;;;;5020880;28;20218;-64
2022/03/15 06:32:36;;;;;;;5.33;3.10;;;;;;;;;;5037833;28;20199;-64
2022/03/15 06:35:07;;;;;;;6.20;2.80;;;;;;;;;;5021567;28;20206;-65
2022/03/15 06:37:39;;;;;;;5.60;2.70;;;;;;;;;;5039338;28;20207;-65
2022/03/15 06:40:07;;;;;;;3.23;2.80;;;;;;;;;;5048866;28;20215;-67
2022/03/15 06:42:35;;;;;;;2.90;2.60;;;;;;;;;;5056212;28;20213;-63
2022/03/15 06:45:03;;;;;;;3.73;3.00;;;;;;;;;;5033391;28;20658;-63
2022/03/15 06:47:30;;;;;;;5.23;3.10;;;;;;;;;;5016411;28;20812;-65
2022/03/15 06:49:58;;;;;;;3.13;2.83;;;;;;;;;;5024169;28;20210;-65
2022/03/15 06:52:25;;;;;;;5.00;2.40;;;;;;;;;;5027495;28;20282;-66
2022/03/15 06:54:55;;;;;;;3.33;2.70;;;;;;;;;;5029556;28;20203;-66
2022/03/15 06:57:23;;;;;;;3.07;2.67;;;;;;;;;;5023186;28;20245;-65
2022/03/15 06:59:50;;;;;;;4.77;2.80;;;;;;;;;;5036134;28;20202;-65
2022/03/15 07:02:17;;;;;;;3.83;2.30;;;;;;;;;;5023818;28;20207;-63
2022/03/15 07:04:45;;;;;;;3.33;2.50;;;;;;;;;;5030226;28;20202;-65
2022/03/15 07:07:13;;;;;;;2.73;2.13;;;;;;;;;;5042541;28;20214;-65
2022/03/15 07:09:41;;;;;;;2.40;2.20;;;;;;;;;;5036794;28;20980;-65
2022/03/15 07:12:09;;;;;;;5.77;2.10;;;;;;;;;;5031450;28;20207;-65
2022/03/15 07:14:36;;;;;;;3.30;2.30;;;;;;;;;;5016377;28;20669;-66
2022/03/15 07:17:04;;;;;;;4.53;2.70;;;;;;;;;;5027927;28;20199;-65
2022/03/15 07:19:31;;;;;;;2.07;1.97;;;;;;;;;;5040944;28;20231;-66
2022/03/15 07:21:58;;;;;;;2.83;1.93;;;;;;;;;;5036428;28;20588;-66
2022/03/15 07:24:26;;;;;;;5.67;2.00;;;;;;;;;;5030891;28;20215;-64
2022/03/15 07:26:54;;;;;;;2.90;2.00;;;;;;;;;;5031382;28;20652;-65
2022/03/15 07:29:21;;;;;;;2.07;1.97;;;;;;;;;;5024432;28;20226;-65
2022/03/15 07:31:49;;;;;;;4.53;1.73;;;;;;;;;;5046015;28;20252;-65
2022/03/15 07:34:16;;;;;;;2.33;1.60;;;;;;;;;;5026757;28;20211;-66
2022/03/15 07:36:45;;;;;;;2.87;1.70;;;;;;;;;;5029898;28;20195;-65
2022/03/15 07:39:13;;;;;;;1.90;1.80;;;;;;;;;;5017676;28;20223;-65
2022/03/15 07:41:40;;;;;;;3.17;1.70;;;;;;;;;;5028282;28;20665;-66
2022/03/15 07:44:08;;;;;;;2.17;1.97;;;;;;;;;;5021235;28;20207;-66
2022/03/15 07:46:36;;;;;;;3.30;1.57;;;;;;;;;;5014894;28;20635;-65
2022/03/15 07:49:04;;;;;;;2.27;1.87;;;;;;;;;;5023041;28;20223;-65
2022/03/15 07:51:31;;;;;;;3.23;2.00;;;;;;;;;;5031914;28;20207;-64
2022/03/15 07:53:59;;;;;;;1.90;1.80;;;;;;;;;;5019119;28;20566;-66
2022/03/15 07:56:26;;;;;;;2.27;1.90;;;;;;;;;;5018193;28;20206;-63
2022/03/15 07:58:54;;;;;;;1.93;1.83;;;;;;;;;;5023200;28;20235;-65
2022/03/15 08:01:21;;;;;;;2.20;2.00;;;;;;;;;;5027955;28;20268;-64
2022/03/15 08:03:49;;;;;;;2.97;2.20;;;;;;;;;;5030416;28;20584;-64
2022/03/15 08:06:16;;;;;;;1.73;1.63;;;;;;;;;;5029487;28;20245;-68
2022/03/15 08:08:44;;;;;;;4.53;2.10;;;;;;;;;;5019305;28;20701;-65
2022/03/15 08:11:11;;;;;;;2.03;1.83;;;;;;;;;;5021238;28;20292;-65
2022/03/15 08:13:39;;;;;;;1.80;1.70;;;;;;;;;;5044283;28;20676;-68
2022/03/15 08:16:06;;;;;;;1.80;1.70;;;;;;;;;;5017931;28;20253;-67
2022/03/15 08:18:33;;;;;;;1.97;1.87;;;;;;;;;;5025040;28;20313;-65
2022/03/15 08:21:01;;;;;;;1.83;1.70;;;;;;;;;;5019679;28;20199;-66
2022/03/15 08:23:29;;;;;;;3.50;2.13;;;;;;;;;;5025516;28;20272;-66
2022/03/15 08:25:57;;;;;;;2.97;1.93;;;;;;;;;;5027772;28;20614;-66
2022/03/15 08:28:25;;;;;;;2.47;1.90;;;;;;;;;;5008998;28;20244;-65
2022/03/15 08:30:54;;;;;;;2.40;2.20;;;;;;;;;;5015785;28;20615;-65
2022/03/15 08:33:23;;;;;;;2.07;1.97;;;;;;;;;;5017508;28;20208;-67
2022/03/15 08:35:51;;;;;;;1.80;1.70;;;;;;;;;;5022998;28;20198;-65
2022/03/15 08:38:18;;;;;;;2.47;1.90;;;;;;;;;;5032265;28;20590;-65
2022/03/15 08:40:46;;;;;;;1.80;1.70;;;;;;;;;;5021884;28;20765;-65
2022/03/15 08:43:13;;;;;;;1.70;1.60;;;;;;;;;;5028730;28;20214;-64
2022/03/15 08:45:41;;;;;;;2.13;1.93;;;;;;;;;;5034285;28;20211;-66
2022/03/15 08:48:08;;;;;;;2.00;1.90;;;;;;;;;;5019103;28;20261;-65
2022/03/15 08:50:36;;;;;;;1.90;1.70;;;;;;;;;;5036938;28;20253;-67
2022/03/15 08:53:03;;;;;;;2.20;2.00;;;;;;;;;;5023198;28;20258;-64
2022/03/15 08:55:30;;;;;;;1.90;1.70;;;;;;;;;;5015906;28;20211;-65
2022/03/15 08:57:58;;;;;;;1.80;1.70;;;;;;;;;;5012577;28;20215;-64
2022/03/15 09:00:25;;;;;;;2.40;1.40;;;;;;;;;;5019761;28;20207;-64
2022/03/15 09:02:53;;;;;;;2.20;1.60;;;;;;;;;;5029153;28;20612;-66
2022/03/15 09:05:21;;;;;;;1.63;1.53;;;;;;;;;;5026766;28;20213;-65
2022/03/15 09:07:51;;;;;;;1.83;1.70;;;;;;;;;;5026913;28;20309;-65
2022/03/15 09:10:18;;;;;;;1.63;1.50;;;;;;;;;;5025080;28;20207;-66
2022/03/15 09:12:46;;;;;;;1.63;1.43;;;;;;;;;;5028993;28;20759;-66
2022/03/15 09:15:14;;;;;;;1.83;1.50;;;;;;;;;;5035052;28;20653;-65
2022/03/15 09:17:42;;;;;;;3.03;1.40;;;;;;;;;;5037357;28;20707;-65
2022/03/15 09:20:23;;;;;;;1.73;1.63;;;;;;;;;;5038133;28;20290;-64
2022/03/15 09:22:50;;;;;;;1.97;1.30;;;;;;;;;;5045336;28;20207;-65
2022/03/15 09:25:18;;;;;;;1.40;1.30;;;;;;;;;;5025449;28;20203;-65
2022/03/15 09:27:46;;;;;;;1.50;1.40;;;;;;;;;;5023241;28;20230;-65
2022/03/15 09:30:14;;;;;;;1.90;1.33;;;;;;;;;;5025264;28;20231;-65
2022/03/15 09:32:41;;;;;;;1.50;1.40;;;;;;;;;;5041201;28;20615;-65
2022/03/15 09:35:09;;;;;;;1.13;1.13;;;;;;;;;;5040256;28;20264;-65
2022/03/15 09:37:37;;;;;;;2.10;1.30;;;;;;;;;;5027319;28;20579;-64
2022/03/15 09:40:08;;;;;;;1.50;1.30;;;;;;;;;;5034315;28;20629;-65
2022/03/15 09:42:36;;;;;;;1.83;1.17;;;;;;;;;;5029198;28;20599;-62
2022/03/15 09:45:04;;;;;;;1.40;1.30;;;;;;;;;;5015400;28;20809;-65
2022/03/15 09:47:33;;;;;;;1.37;1.30;;;;;;;;;;5010722;28;20218;-66
2022/03/15 09:50:02;;;;;;;1.47;1.37;;;;;;;;;;5021011;28;20670;-65
2022/03/15 09:52:30;;;;;;;1.70;1.43;;;;;;;;;;5017413;28;20685;-63
2022/03/15 09:54:58;;;;;;;1.33;1.23;;;;;;;;;;5024171;28;20207;-65
2022/03/15 09:57:26;;;;;;;3.13;1.90;;;;;;;;;;5021963;28;20218;-64
2022/03/15 09:59:58;;;;;;;1.80;1.63;;;;;;;;;;5045168;28;20861;-65
2022/03/15 10:02:26;;;;;;;1.23;1.10;;;;;;;;;;5019688;28;20215;-65
2022/03/15 10:04:54;;;;;;;3.00;2.00;;;;;;;;;;5022830;28;20213;-65
2022/03/15 10:07:21;;;;;;;3.57;2.00;;;;;;;;;;5030694;28;20302;-65
2022/03/15 10:09:51;;;;;;;2.20;2.00;;;;;;;;;;5038395;28;20235;-65
2022/03/15 10:12:19;;;;;;;2.90;2.10;;;;;;;;;;5027510;28;20199;-64
2022/03/15 10:14:49;;;;;;;3.77;2.43;;;;;;;;;;5045209;28;20202;-64
2022/03/15 10:17:16;;;;;;;1.60;1.50;;;;;;;;;;5020187;28;20233;-64
2022/03/15 10:19:54;;;;;;;1.30;1.20;;;;;;;;;;5024558;28;20222;-64
2022/03/15 10:22:22;;;;;;;1.53;1.40;;;;;;;;;;5019712;28;20203;-65
2022/03/15 10:24:50;;;;;;;1.00;1.00;;;;;;;;;;5035572;28;20222;-65
2022/03/15 10:27:18;;;;;;;1.30;1.20;;;;;;;;;;5028499;28;20199;-65
2022/03/15 10:29:47;;;;;;;1.10;1.10;;;;;;;;;;5023862;28;20239;-64
2022/03/15 10:32:16;;;;;;;1.60;1.50;;;;;;;;;;5021812;28;20207;-65
2022/03/15 10:34:43;;;;;;;2.50;1.20;;;;;;;;;;5024031;28;20649;-64
2022/03/15 10:37:11;;;;;;;1.30;1.30;;;;;;;;;;5033670;28;20203;-64
2022/03/15 10:39:42;;;;;;;1.47;1.37;;;;;;;;;;5020710;28;20329;-65
2022/03/15 10:42:12;;;;;;;1.60;1.50;;;;;;;;;;5014048;28;20206;-65
2022/03/15 10:44:40;;;;;;;1.47;1.37;;;;;;;;;;5021797;28;20766;-65
2022/03/15 10:47:12;;;;;;;1.50;1.40;;;;;;;;;;5026879;28;20694;-65
2022/03/15 10:49:48;;;;;;;1.87;1.30;;;;;;;;;;5040440;28;20670;-64
2022/03/15 10:52:28;;;;;;;1.87;1.77;;;;;;;;;;5007319;28;20218;-65
2022/03/15 10:54:56;;;;;;;2.93;1.60;;;;;;;;;;5021590;28;20217;-63
2022/03/15 10:57:23;;;;;;;3.27;2.43;;;;;;;;;;5018781;28;20872;-64
2022/03/15 10:59:52;;;;;;;2.73;2.30;;;;;;;;;;5040223;28;20616;-65
2022/03/15 11:02:29;;;;;;;2.97;2.10;;;;;;;;;;5023526;28;20210;-62
2022/03/15 11:04:57;;;;;;;2.93;1.90;;;;;;;;;;5017226;28;20206;-65
2022/03/15 11:07:24;;;;;;;1.77;1.67;;;;;;;;;;5019632;28;20273;-64
2022/03/15 11:09:57;;;;;;;2.90;2.27;;;;;;;;;;5032618;28;20301;-64
2022/03/15 11:12:24;;;;;;;2.57;2.17;;;;;;;;;;5016222;28;20211;-65
2022/03/15 11:14:57;;;;;;;3.27;2.73;;;;;;;;;;5018713;28;20210;-65
2022/03/15 11:17:26;;;;;;;2.97;2.00;;;;;;;;;;5040291;28;20207;-66
2022/03/15 11:19:57;;;;;;;2.20;2.10;;;;;;;;;;5028877;28;20408;-65
2022/03/15 11:22:34;;;;;;;3.73;2.53;;;;;;;;;;5011856;28;20207;-64
2022/03/15 11:25:06;;;;;;;3.87;3.10;;;;;;;;;;5019840;28;20222;-65
2022/03/15 11:27:35;;;;;;;3.20;2.90;;;;;;;;;;5021450;28;20207;-65
2022/03/15 11:30:05;;;;;;;3.13;2.73;;;;;;;;;;5041006;28;20711;-65
2022/03/15 11:32:34;;;;;;;4.40;3.00;;;;;;;;;;5021036;28;20637;-65
2022/03/15 11:35:01;;;;;;;4.67;3.03;;;;;;;;;;5016436;28;20262;-65
2022/03/15 11:37:29;;;;;;;3.47;3.17;;;;;;;;;;5013949;28;20206;-65
2022/03/15 11:40:01;;;;;;;3.53;3.23;;;;;;;;;;5018871;28;20218;-64
2022/03/15 11:42:29;;;;;;;3.63;3.33;;;;;;;;;;5026262;28;20715;-66
2022/03/15 11:44:56;;;;;;;5.67;3.30;;;;;;;;;;5044957;28;20202;-65
2022/03/15 11:47:24;;;;;;;6.13;3.30;;;;;;;;;;5027418;28;20203;-65
2022/03/15 11:50:02;;;;;;;3.97;3.20;;;;;;;;;;5011661;28;20261;-64
2022/03/15 11:52:30;;;;;;;5.03;3.70;;;;;;;;;;5035148;28;20198;-64
2022/03/15 11:55:13;;;;;;;4.50;3.60;;;;;;;;;;5040740;28;20618;-65
2022/03/15 11:57:42;;;;;;;5.50;3.83;;;;;;;;;;5028531;28;20261;-64
2022/03/15 12:00:10;;;;;;;6.93;4.30;;;;;;;;;;5023011;28;20219;-64
2022/03/15 12:02:39;;;;;;;4.87;4.37;;;;;;;;;;5024277;28;20215;-64
2022/03/15 12:05:16;;;;;;;5.17;4.67;;;;;;;;;;5024808;28;20211;-65
2022/03/15 12:07:46;;;;;;;4.60;4.03;;;;;;;;;;5032320;28;21444;-64
2022/03/15 12:10:24;;;;;;;5.67;4.10;;;;;;;;;;5023212;28;20704;-65
2022/03/15 12:13:10;;;;;;;5.27;4.47;;;;;;;;;;5014574;28;20207;-64
2022/03/15 12:15:39;;;;;;;4.40;4.00;;;;;;;;;;5019082;28;20234;-65
2022/03/15 12:21:10;;;;;;;5.80;5.30;;;;;;;;;;5003786;28;20206;-64
2022/03/15 12:23:39;;;;;;;4.57;4.20;;;;;;;;;;5038229;28;20211;-67
2022/03/15 12:26:15;;;;;;;6.00;4.93;;;;;;;;;;5023463;28;20219;-65
2022/03/15 12:28:44;;;;;;;9.67;8.33;;;;;;;;;;5038598;28;20233;-64
2022/03/15 12:31:11;;;;;;;7.37;5.80;;;;;;;;;;5039188;28;20218;-64
2022/03/15 12:33:39;;;;;;;8.07;4.93;;;;;;;;;;5038936;28;20214;-64
2022/03/15 12:36:08;;;;;;;5.73;5.13;;;;;;;;;;5045871;28;20656;-65
2022/03/15 12:38:40;;;;;;;5.57;4.97;;;;;;;;;;5045686;28;20607;-65
2022/03/15 12:41:08;;;;;;;5.90;5.30;;;;;;;;;;5027805;28;20210;-65
2022/03/15 12:43:35;;;;;;;6.60;4.90;;;;;;;;;;5031421;28;20207;-65
2022/03/15 12:46:04;;;;;;;6.70;5.13;;;;;;;;;;5032985;28;20225;-64
2022/03/15 12:48:34;;;;;;;9.23;5.63;;;;;;;;;;5029688;28;20227;-65
2022/03/15 12:51:02;;;;;;;9.10;6.40;;;;;;;;;;5027299;28;20227;-65
2022/03/15 12:53:37;;;;;;;5.57;5.07;;;;;;;;;;5025087;28;20211;-63
2022/03/15 12:56:05;;;;;;;6.77;5.17;;;;;;;;;;5035351;28;20596;-64
2022/03/15 12:58:32;;;;;;;7.17;5.23;;;;;;;;;;5038762;28;20317;-65
2022/03/15 13:01:00;;;;;;;6.23;5.47;;;;;;;;;;5026317;28;20215;-65
2022/03/15 13:03:28;;;;;;;7.13;5.90;;;;;;;;;;5023386;28;20211;-65
2022/03/15 13:05:57;;;;;;;8.97;6.70;;;;;;;;;;5024146;28;20213;-63
2022/03/15 13:08:25;;;;;;;10.27;7.53;;;;;;;;;;5027089;28;20230;-64
2022/03/15 13:10:53;;;;;;;7.63;6.30;;;;;;;;;;5023062;28;20234;-65
2022/03/15 13:13:24;;;;;;;8.97;6.63;;;;;;;;;;5021573;28;20711;-64
2022/03/15 13:15:52;;;;;;;7.10;6.03;;;;;;;;;;5032498;28;20223;-64
2022/03/15 13:18:21;;;;;;;7.83;5.70;;;;;;;;;;5013992;28;20739;-65
2022/03/15 13:20:49;;;;;;;5.93;5.17;;;;;;;;;;5019077;28;20208;-64
2022/03/15 13:23:17;;;;;;;7.77;5.97;;;;;;;;;;5041167;28;20273;-64
2022/03/15 13:25:46;;;;;;;7.20;6.50;;;;;;;;;;5037221;28;20211;-65
2022/03/15 13:28:19;;;;;;;8.03;6.67;;;;;;;;;;5024474;28;20235;-64
2022/03/15 13:30:49;;;;;;;11.20;7.37;;;;;;;;;;5032406;28;20621;-64
2022/03/15 13:33:31;;;;;;;8.10;7.00;;;;;;;;;;5036844;28;21029;-64
2022/03/15 13:36:01;;;;;;;11.07;7.43;;;;;;;;;;5025729;28;20217;-65
2022/03/15 13:38:33;;;;;;;6.67;5.80;;;;;;;;;;5019801;28;20222;-65
2022/03/15 13:41:02;;;;;;;8.60;5.90;;;;;;;;;;5016021;28;20206;-65
2022/03/15 13:43:31;;;;;;;8.20;6.03;;;;;;;;;;5012679;28;20209;-64
2022/03/15 13:46:03;;;;;;;7.00;5.60;;;;;;;;;;5025045;28;20199;-64
2022/03/15 13:48:37;;;;;;;7.57;6.03;;;;;;;;;;5039741;28;20233;-66
2022/03/15 13:51:15;;;;;;;13.60;10.23;;;;;;;;;;5022531;28;20241;-65
2022/03/15 13:53:44;;;;;;;17.10;12.77;;;;;;;;;;5026290;28;20194;-64
2022/03/15 13:56:19;;;;;;;10.57;8.60;;;;;;;;;;5023561;28;20199;-64
2022/03/15 13:59:01;;;;;;;8.47;6.17;;;;;;;;;;5043909;28;20222;-64
2022/03/15 14:01:35;;;;;;;9.67;5.93;;;;;;;;;;5026092;28;20217;-64
2022/03/15 14:04:03;;;;;;;7.53;6.03;;;;;;;;;;5040323;28;20198;-64
2022/03/15 14:06:35;;;;;;;10.27;7.60;;;;;;;;;;5029742;28;20202;-64
2022/03/15 14:09:04;;;;;;;8.90;8.00;;;;;;;;;;5042785;28;20721;-64
2022/03/15 14:11:40;;;;;;;10.47;7.73;;;;;;;;;;5032355;28;20202;-64
2022/03/15 14:14:11;;;;;;;8.37;7.00;;;;;;;;;;5021402;28;20206;-64
2022/03/15 14:16:41;;;;;;;8.60;7.07;;;;;;;;;;5037501;28;20214;-65
2022/03/15 14:19:10;;;;;;;8.27;6.73;;;;;;;;;;5042539;28;20231;-64
2022/03/15 14:21:41;;;;;;;11.60;6.70;;;;;;;;;;5029187;28;20215;-63
2022/03/15 14:24:19;;;;;;;7.77;6.57;;;;;;;;;;5041171;28;20203;-66
2022/03/15 14:26:51;;;;;;;12.20;7.37;;;;;;;;;;5042728;28;20204;-65
2022/03/15 14:29:21;;;;;;;8.93;7.33;;;;;;;;;;5041325;28;20293;-66
2022/03/15 14:31:58;;;;;;;9.53;6.80;;;;;;;;;;5042771;28;20269;-66
2022/03/15 14:34:26;;;;;;;9.80;6.40;;;;;;;;;;5038231;28;20202;-65
2022/03/15 14:37:23;;;;;;;6.77;6.10;;;;;;;;;;5039509;28;20206;-66
2022/03/15 14:39:50;;;;;;;8.50;5.80;;;;;;;;;;5017217;28;20230;-65
2022/03/15 14:42:18;;;;;;;7.57;5.53;;;;;;;;;;5020489;28;20211;-65
2022/03/15 14:44:46;;;;;;;10.17;5.60;;;;;;;;;;5039605;28;20206;-65
2022/03/15 14:47:15;;;;;;;5.93;5.23;;;;;;;;;;5041603;28;20626;-65
2022/03/15 14:49:43;;;;;;;8.83;5.17;;;;;;;;;;5044055;28;20257;-64
2022/03/15 14:52:14;;;;;;;7.73;5.40;;;;;;;;;;5040330;28;20269;-65
2022/03/15 14:54:44;;;;;;;5.07;4.57;;;;;;;;;;5042364;28;20309;-64
2022/03/15 14:57:20;;;;;;;6.30;4.20;;;;;;;;;;5023891;28;20206;-65
2022/03/15 14:59:52;;;;;;;5.30;4.00;;;;;;;;;;5041311;28;20741;-66